createdAt,value
2018-04-14T00:01:43.288Z,66.17
2018-04-14T00:03:44.382Z,77.60
2018-04-14T00:05:58.407Z,75.40
2018-04-14T00:08:07.944Z,77.80
2018-04-14T00:10:09.262Z,81.73
2018-04-14T00:12:11.535Z,82.17
2018-04-14T00:14:12.952Z,82.57
2018-04-14T00:16:35.327Z,78.80
2018-04-14T00:20:52.942Z,71.70
2018-04-14T00:23:00.163Z,76.13
2018-04-14T00:25:01.440Z,72.77
2018-04-14T00:27:09.357Z,67.33
2018-04-14T00:36:45.001Z,65.23
2018-04-14T00:38:46.145Z,65.63
2018-04-14T00:40:47.794Z,73.60
2018-04-14T00:42:49.803Z,68.47
2018-04-14T00:44:50.845Z,70.73
2018-04-14T00:46:51.828Z,73.03
2018-04-14T00:48:53.181Z,69.90
2018-04-14T00:51:06.389Z,69.97
2018-04-14T00:53:20.140Z,64.33
2018-04-14T00:55:41.796Z,57.30
2018-04-14T00:57:43.121Z,63.03
2018-04-14T00:59:51.572Z,61.27
2018-04-14T01:04:17.214Z,63.00
2018-04-14T01:12:42.350Z,58.97
2018-04-14T01:14:43.503Z,58.13
2018-04-14T01:16:44.804Z,63.87
2018-04-14T01:21:25.498Z,58.67
2018-04-14T01:23:26.770Z,58.30
2018-04-14T01:25:27.942Z,60.57
2018-04-14T01:27:29.210Z,59.80
2018-04-14T01:29:30.306Z,58.53
2018-04-14T01:31:31.487Z,59.77
2018-04-14T01:33:41.249Z,59.27
2018-04-14T01:38:10.106Z,56.57
2018-04-14T01:40:12.003Z,60.23
2018-04-14T01:42:30.714Z,57.40
2018-04-14T01:47:09.993Z,79.30
2018-04-14T01:49:11.096Z,63.93
2018-04-14T01:51:12.323Z,59.67
2018-04-14T01:53:13.347Z,59.40
2018-04-14T01:57:46.348Z,55.37
2018-04-14T01:59:48.018Z,55.70
2018-04-14T02:01:49.153Z,55.43
2018-04-14T02:03:50.236Z,57.60
2018-04-14T02:05:52.763Z,57.23
2018-04-14T02:07:54.822Z,59.03
2018-04-14T02:09:56.059Z,61.03
2018-04-14T02:12:17.059Z,52.80
2018-04-14T02:14:44.188Z,54.07
2018-04-14T02:16:45.578Z,52.20
2018-04-14T02:19:16.023Z,53.10
2018-04-14T02:21:17.370Z,53.80
2018-04-14T02:25:56.903Z,53.53
2018-04-14T02:30:30.971Z,54.50
2018-04-14T02:35:00.319Z,52.37
2018-04-14T02:42:16.441Z,53.60
2018-04-14T02:44:17.432Z,54.40
2018-04-14T02:46:27.325Z,57.43
2018-04-14T02:48:30.626Z,59.37
2018-04-14T02:50:31.829Z,57.80
2018-04-14T02:52:47.997Z,58.60
2018-04-14T02:54:49.125Z,56.10
2018-04-14T03:01:55.703Z,53.47
2018-04-14T03:03:56.858Z,57.77
2018-04-14T03:05:58.855Z,56.27
2018-04-14T03:10:35.130Z,57.77
2018-04-14T03:12:46.401Z,58.00
2018-04-14T03:14:47.430Z,58.20
2018-04-14T03:16:48.533Z,60.60
2018-04-14T03:18:50.110Z,58.67
2018-04-14T03:20:51.563Z,62.70
2018-04-14T03:22:52.739Z,61.00
2018-04-14T03:24:53.992Z,59.63
2018-04-14T03:29:46.354Z,59.97
2018-04-14T03:31:48.571Z,62.30
2018-04-14T03:33:49.939Z,60.37
2018-04-14T03:35:51.036Z,64.20
2018-04-14T03:38:13.817Z,63.87
2018-04-14T03:40:15.598Z,64.60
2018-04-14T03:42:16.870Z,64.07
2018-04-14T03:44:18.005Z,65.77
2018-04-14T03:46:19.164Z,62.40
2018-04-14T03:50:58.899Z,61.53
2018-04-14T03:55:28.035Z,60.30
2018-04-14T03:57:29.209Z,62.37
2018-04-14T03:59:31.082Z,62.67
2018-04-14T04:06:41.908Z,57.90
2018-04-14T04:11:19.858Z,58.50
2018-04-14T04:13:20.977Z,64.10
2018-04-14T04:15:21.987Z,62.80
2018-04-14T04:17:23.354Z,59.57
2018-04-14T04:19:37.000Z,60.40
2018-04-14T04:21:51.362Z,61.60
2018-04-14T04:26:30.703Z,58.10
2018-04-14T04:28:36.034Z,59.43
2018-04-14T04:30:37.603Z,62.63
2018-04-14T04:32:39.070Z,60.10
2018-04-14T04:34:40.475Z,62.83
2018-04-14T04:36:41.602Z,59.10
2018-04-14T04:41:37.987Z,63.63
2018-04-14T04:46:06.624Z,63.20
2018-04-14T04:48:08.001Z,62.77
2018-04-14T04:55:30.790Z,65.07
2018-04-14T04:57:32.948Z,69.40
2018-04-14T04:59:34.190Z,68.03
2018-04-14T05:01:35.386Z,65.83
2018-04-14T05:03:36.618Z,66.50
2018-04-14T05:08:22.770Z,62.60
2018-04-14T05:10:23.759Z,67.67
2018-04-14T05:12:24.874Z,70.00
2018-04-14T05:14:26.660Z,67.27
2018-04-14T05:18:53.120Z,66.10
2018-04-14T05:23:35.934Z,70.40
2018-04-14T05:28:34.122Z,70.57
2018-04-14T05:30:41.554Z,65.30
2018-04-14T05:32:42.802Z,68.30
2018-04-14T05:34:44.948Z,67.87
2018-04-14T05:36:47.205Z,66.97
2018-04-14T05:41:26.200Z,70.30
2018-04-14T05:43:47.155Z,67.67
2018-04-14T05:48:16.947Z,62.97
2018-04-14T05:50:18.065Z,64.10
2018-04-14T05:54:44.163Z,65.73
2018-04-14T05:56:45.267Z,63.97
2018-04-14T05:58:46.547Z,60.60
2018-04-14T06:00:47.680Z,62.27
2018-04-14T06:02:48.871Z,59.17
2018-04-14T06:04:50.163Z,61.80
2018-04-14T06:06:51.310Z,61.90
2018-04-14T06:08:52.355Z,57.50
2018-04-14T06:10:53.725Z,60.33
2018-04-14T06:12:54.825Z,58.97
2018-04-14T06:14:55.991Z,56.93
2018-04-14T06:16:57.067Z,59.93
2018-04-14T06:18:58.150Z,57.27
2018-04-14T06:20:59.226Z,58.23
2018-04-14T06:23:00.259Z,59.97
2018-04-14T06:25:01.312Z,56.47
2018-04-14T06:27:03.503Z,58.67
2018-04-14T06:29:04.666Z,55.17
2018-04-14T06:31:05.803Z,55.07
2018-04-14T06:33:06.870Z,59.70
2018-04-14T06:35:07.969Z,59.13
2018-04-14T06:37:13.799Z,53.17
2018-04-14T06:39:14.987Z,55.17
2018-04-14T06:41:16.089Z,53.00
2018-04-14T06:43:17.236Z,55.27
2018-04-14T06:45:19.099Z,54.47
2018-04-14T06:47:20.258Z,51.23
2018-04-14T06:49:21.304Z,57.00
2018-04-14T06:51:22.465Z,57.23
2018-04-14T06:53:23.508Z,54.63
2018-04-14T06:55:24.594Z,58.33
2018-04-14T06:57:26.223Z,57.57
2018-04-14T06:59:27.480Z,61.90
2018-04-14T07:01:28.525Z,57.00
2018-04-14T07:03:29.642Z,51.90
2018-04-14T07:05:30.718Z,48.90
2018-04-14T07:07:32.453Z,50.87
2018-04-14T07:09:34.023Z,49.50
2018-04-14T07:11:35.856Z,44.67
2018-04-14T07:16:15.077Z,48.53
2018-04-14T07:20:28.374Z,47.97
2018-04-14T07:22:29.386Z,51.30
2018-04-14T07:24:30.623Z,50.23
2018-04-14T07:26:34.699Z,47.90
2018-04-14T07:28:35.907Z,48.67
2018-04-14T07:30:37.375Z,42.67
2018-04-14T07:32:38.577Z,44.67
2018-04-14T07:34:39.770Z,44.00
2018-04-14T07:36:41.288Z,46.57
2018-04-14T07:38:42.422Z,47.17
2018-04-14T07:40:43.471Z,45.57
2018-04-14T07:42:44.967Z,49.17
2018-04-14T07:44:46.504Z,46.37
2018-04-14T07:46:47.667Z,46.87
2018-04-14T07:48:48.797Z,43.10
2018-04-14T07:50:49.816Z,47.50
2018-04-14T07:52:50.896Z,43.90
2018-04-14T07:54:52.141Z,44.70
2018-04-14T07:56:53.259Z,44.77
2018-04-14T07:58:54.422Z,48.20
2018-04-14T08:00:55.527Z,47.53
2018-04-14T08:02:56.733Z,47.23
2018-04-14T08:04:57.931Z,47.43
2018-04-14T08:07:00.097Z,45.17
2018-04-14T08:09:01.219Z,48.33
2018-04-14T08:11:02.838Z,45.70
2018-04-14T08:13:04.070Z,45.63
2018-04-14T08:15:05.155Z,42.53
2018-04-14T08:17:06.297Z,42.57
2018-04-14T08:19:12.729Z,47.13
2018-04-14T08:21:13.914Z,45.53
2018-04-14T08:23:16.591Z,42.87
2018-04-14T08:25:17.929Z,42.90
2018-04-14T08:27:19.100Z,46.73
2018-04-14T08:29:20.131Z,45.27
2018-04-14T08:31:22.068Z,44.73
2018-04-14T08:33:23.419Z,43.23
2018-04-14T08:35:24.831Z,39.00
2018-04-14T08:37:26.413Z,41.47
2018-04-14T08:39:27.608Z,44.77
2018-04-14T08:41:28.885Z,43.50
2018-04-14T08:43:30.286Z,44.13
2018-04-14T08:45:31.586Z,43.30
2018-04-14T08:47:33.022Z,42.43
2018-04-14T08:49:34.631Z,44.57
2018-04-14T08:51:35.834Z,45.60
2018-04-14T08:53:37.017Z,47.43
2018-04-14T08:55:38.141Z,46.03
2018-04-14T08:57:39.247Z,42.27
2018-04-14T08:59:40.297Z,41.37
2018-04-14T09:01:41.324Z,46.37
2018-04-14T09:03:42.517Z,40.50
2018-04-14T09:05:43.579Z,47.20
2018-04-14T09:07:46.390Z,46.33
2018-04-14T09:09:47.440Z,43.87
2018-04-14T09:11:48.664Z,45.57
2018-04-14T09:13:50.220Z,50.40
2018-04-14T09:15:51.681Z,45.00
2018-04-14T09:17:52.883Z,43.23
2018-04-14T09:19:54.069Z,46.70
2018-04-14T09:21:55.316Z,45.33
2018-04-14T09:23:56.410Z,45.60
2018-04-14T09:25:57.431Z,46.93
2018-04-14T09:27:58.446Z,45.50
2018-04-14T09:29:59.435Z,48.93
2018-04-14T09:32:00.410Z,45.10
2018-04-14T09:34:01.407Z,43.50
2018-04-14T09:36:02.428Z,45.37
2018-04-14T09:38:03.511Z,44.17
2018-04-14T09:40:04.490Z,44.27
2018-04-14T09:42:05.502Z,45.30
2018-04-14T09:44:06.482Z,44.33
2018-04-14T09:46:07.660Z,42.37
2018-04-14T09:48:08.964Z,42.20
2018-04-14T09:50:10.090Z,41.60
2018-04-14T09:52:11.308Z,44.57
2018-04-14T09:54:12.576Z,39.90
2018-04-14T09:56:13.614Z,41.50
2018-04-14T09:58:14.647Z,40.27
2018-04-14T10:00:26.691Z,42.80
2018-04-14T10:02:45.564Z,40.60
2018-04-14T10:04:46.742Z,39.97
2018-04-14T10:06:47.706Z,40.00
2018-04-14T10:08:48.839Z,43.83
2018-04-14T10:10:49.871Z,39.80
2018-04-14T10:12:50.911Z,39.60
2018-04-14T10:14:51.964Z,37.60
2018-04-14T10:16:52.994Z,38.43
2018-04-14T10:18:54.086Z,39.17
2018-04-14T10:20:55.141Z,38.43
2018-04-14T10:22:56.142Z,38.40
2018-04-14T10:24:57.137Z,40.37
2018-04-14T10:26:58.222Z,38.90
2018-04-14T10:28:59.260Z,37.27
2018-04-14T10:31:00.399Z,39.10
2018-04-14T10:33:01.566Z,39.40
2018-04-14T10:35:02.617Z,40.70
2018-04-14T10:37:03.673Z,40.97
2018-04-14T10:39:04.855Z,39.97
2018-04-14T10:41:05.843Z,41.58
2018-04-14T10:43:06.864Z,42.47
2018-04-14T10:45:07.955Z,38.23
2018-04-14T10:47:09.006Z,38.13
2018-04-14T10:49:10.096Z,42.40
2018-04-14T10:51:11.277Z,39.57
2018-04-14T10:53:12.327Z,36.07
2018-04-14T10:55:13.567Z,40.73
2018-04-14T10:57:14.673Z,38.63
2018-04-14T10:59:15.672Z,40.33
2018-04-14T11:01:16.781Z,38.80
2018-04-14T11:03:17.774Z,40.67
2018-04-14T11:05:18.848Z,41.73
2018-04-14T11:07:19.942Z,40.43
2018-04-14T11:09:21.001Z,39.67
2018-04-14T11:11:22.597Z,43.67
2018-04-14T11:13:23.659Z,38.60
2018-04-14T11:15:24.686Z,41.07
2018-04-14T11:17:25.797Z,41.00
2018-04-14T11:19:26.838Z,40.50
2018-04-14T11:21:27.864Z,40.10
2018-04-14T11:23:29.384Z,37.47
2018-04-14T11:25:30.487Z,40.47
2018-04-14T11:27:31.531Z,40.63
2018-04-14T11:29:32.687Z,40.20
2018-04-14T11:31:34.291Z,39.10
2018-04-14T11:33:35.665Z,38.07
2018-04-14T11:35:40.340Z,42.20
2018-04-14T11:37:41.493Z,36.73
2018-04-14T11:39:43.032Z,36.93
2018-04-14T11:41:44.197Z,38.97
2018-04-14T11:43:45.489Z,40.30
2018-04-14T11:45:46.700Z,37.90
2018-04-14T11:47:48.075Z,38.50
2018-04-14T11:49:49.223Z,39.30
2018-04-14T11:51:50.279Z,37.23
2018-04-14T11:53:51.648Z,41.20
2018-04-14T11:55:52.721Z,38.33
2018-04-14T11:57:54.385Z,35.53
2018-04-14T11:59:55.482Z,35.73
2018-04-14T12:01:56.873Z,36.33
2018-04-14T12:03:58.316Z,37.07
2018-04-14T12:05:59.500Z,40.23
2018-04-14T12:08:00.576Z,38.30
2018-04-14T12:10:02.546Z,38.70
2018-04-14T12:12:03.757Z,37.77
2018-04-14T12:14:05.015Z,39.60
2018-04-14T12:16:06.389Z,40.77
2018-04-14T12:18:07.579Z,38.30
2018-04-14T12:20:08.661Z,31.83
2018-04-14T12:22:09.925Z,41.17
2018-04-14T12:24:10.993Z,38.67
2018-04-14T12:26:11.974Z,38.17
2018-04-14T12:28:13.008Z,38.37
2018-04-14T12:30:14.156Z,39.37
2018-04-14T12:32:15.197Z,41.33
2018-04-14T12:34:17.266Z,42.30
2018-04-14T12:36:18.369Z,40.23
2018-04-14T12:38:19.362Z,39.40
2018-04-14T12:40:20.469Z,36.07
2018-04-14T12:42:22.415Z,40.53
2018-04-14T12:44:23.461Z,39.23
2018-04-14T12:46:24.562Z,41.20
2018-04-14T12:48:25.646Z,41.67
2018-04-14T12:50:26.657Z,37.83
2018-04-14T12:52:27.691Z,37.03
2018-04-14T12:54:29.574Z,37.90
2018-04-14T12:56:30.595Z,43.75
2018-04-14T12:58:32.521Z,45.13
2018-04-14T13:00:33.563Z,41.50
2018-04-14T13:02:34.576Z,41.40
2018-04-14T13:04:35.863Z,39.70
2018-04-14T13:06:36.905Z,38.60
2018-04-14T13:08:38.036Z,40.50
2018-04-14T13:10:39.096Z,40.00
2018-04-14T13:12:40.223Z,39.97
2018-04-14T13:14:41.462Z,40.30
2018-04-14T13:16:42.678Z,39.93
2018-04-14T13:18:43.695Z,38.40
2018-04-14T13:20:44.843Z,39.20
2018-04-14T13:22:45.948Z,39.60
2018-04-14T13:24:47.838Z,40.70
2018-04-14T13:26:48.883Z,40.17
2018-04-14T13:28:49.911Z,40.57
2018-04-14T13:30:50.981Z,39.73
2018-04-14T13:32:52.010Z,40.63
2018-04-14T13:34:53.096Z,40.80
2018-04-14T13:36:54.125Z,40.80
2018-04-14T13:38:55.121Z,40.57
2018-04-14T13:40:56.152Z,42.27
2018-04-14T13:42:57.184Z,37.40
2018-04-14T13:44:58.179Z,39.57
2018-04-14T13:46:59.183Z,40.30
2018-04-14T13:49:00.223Z,40.33
2018-04-14T13:51:01.215Z,40.83
2018-04-14T13:53:02.302Z,38.43
2018-04-14T13:55:03.302Z,38.27
2018-04-14T13:57:04.393Z,40.50
2018-04-14T13:59:05.358Z,39.87
2018-04-14T14:01:06.371Z,39.30
2018-04-14T14:03:07.333Z,36.40
2018-04-14T14:05:08.319Z,37.03
2018-04-14T14:07:09.332Z,34.60
2018-04-14T14:09:10.407Z,34.73
2018-04-14T14:11:11.501Z,34.40
2018-04-14T14:13:12.489Z,38.40
2018-04-14T14:15:13.537Z,37.40
2018-04-14T14:17:14.601Z,37.07
2018-04-14T14:19:15.643Z,37.70
2018-04-14T14:21:16.679Z,38.17
2018-04-14T14:23:17.756Z,36.57
2018-04-14T14:25:18.793Z,38.33
2018-04-14T14:27:19.815Z,40.17
2018-04-14T14:29:20.790Z,38.90
2018-04-14T14:31:21.905Z,40.03
2018-04-14T14:33:23.021Z,39.70
2018-04-14T14:35:24.162Z,42.70
2018-04-14T14:37:25.248Z,40.70
2018-04-14T14:39:26.251Z,42.77
2018-04-14T14:41:27.444Z,42.47
2018-04-14T14:43:28.434Z,40.83
2018-04-14T14:45:29.520Z,41.13
2018-04-14T14:47:36.664Z,41.23
2018-04-14T14:49:37.704Z,42.53
2018-04-14T14:51:38.751Z,42.23
2018-04-14T14:53:39.755Z,43.13
2018-04-14T14:55:40.868Z,45.20
2018-04-14T14:57:41.883Z,42.97
2018-04-14T14:59:42.960Z,45.40
2018-04-14T15:01:44.053Z,43.03
2018-04-14T15:03:45.067Z,45.80
2018-04-14T15:05:46.177Z,44.50
2018-04-14T15:07:48.040Z,46.27
2018-04-14T15:09:49.075Z,45.60
2018-04-14T15:11:50.101Z,44.60
2018-04-14T15:13:51.137Z,44.87
2018-04-14T15:15:52.160Z,45.43
2018-04-14T15:17:53.202Z,42.97
2018-04-14T15:19:54.199Z,43.67
2018-04-14T15:21:55.269Z,46.20
2018-04-14T15:23:56.261Z,45.63
2018-04-14T15:25:57.344Z,48.23
2018-04-14T15:27:58.401Z,46.30
2018-04-14T15:29:59.440Z,47.00
2018-04-14T15:32:00.488Z,44.53
2018-04-14T15:34:01.492Z,47.17
2018-04-14T15:36:02.546Z,47.05
2018-04-14T15:38:03.572Z,45.57
2018-04-14T15:40:04.608Z,45.67
2018-04-14T15:42:06.413Z,44.03
2018-04-14T15:44:07.441Z,45.47
2018-04-14T15:46:08.481Z,44.70
2018-04-14T15:48:09.579Z,47.00
2018-04-14T15:50:10.733Z,47.70
2018-04-14T15:52:11.727Z,46.83
2018-04-14T15:54:12.859Z,47.87
2018-04-14T15:56:13.912Z,47.40
2018-04-14T15:58:15.734Z,45.50
2018-04-14T16:00:17.038Z,47.67
2018-04-14T16:02:18.110Z,45.20
2018-04-14T16:04:19.116Z,47.10
2018-04-14T16:06:20.927Z,48.53
2018-04-14T16:08:21.948Z,48.30
2018-04-14T16:10:23.078Z,48.73
2018-04-14T16:12:24.087Z,47.93
2018-04-14T16:14:25.118Z,48.57
2018-04-14T16:16:26.202Z,47.07
2018-04-14T16:18:27.198Z,48.63
2018-04-14T16:20:28.245Z,48.13
2018-04-14T16:22:29.336Z,46.43
2018-04-14T16:24:30.391Z,49.70
2018-04-14T16:26:31.399Z,48.20
2018-04-14T16:28:32.382Z,49.43
2018-04-14T16:30:33.353Z,48.40
2018-04-14T16:32:34.673Z,46.33
2018-04-14T16:34:36.673Z,49.10
2018-04-14T16:36:37.748Z,46.30
2018-04-14T16:38:38.843Z,46.10
2018-04-14T16:40:39.944Z,47.17
2018-04-14T16:42:40.923Z,48.60
2018-04-14T16:44:42.006Z,46.17
2018-04-14T16:46:43.803Z,45.50
2018-04-14T16:48:44.789Z,46.57
2018-04-14T16:50:45.863Z,47.63
2018-04-14T16:52:47.629Z,47.87
2018-04-14T16:54:48.654Z,45.47
2018-04-14T16:56:49.684Z,48.53
2018-04-14T16:58:50.676Z,50.17
2018-04-14T17:00:51.782Z,47.90
2018-04-14T17:02:52.775Z,46.80
2018-04-14T17:04:53.865Z,48.83
2018-04-14T17:06:54.907Z,49.37
2018-04-14T17:08:55.887Z,47.23
2018-04-14T17:10:56.919Z,49.47
2018-04-14T17:12:58.080Z,50.40
2018-04-14T17:14:59.066Z,49.53
2018-04-14T17:17:00.090Z,47.77
2018-04-14T17:19:01.231Z,48.30
2018-04-14T17:21:02.360Z,49.20
2018-04-14T17:23:03.466Z,47.43
2018-04-14T17:25:05.341Z,48.37
2018-04-14T17:27:06.384Z,47.80
2018-04-14T17:29:07.481Z,47.70
2018-04-14T17:31:08.718Z,44.67
2018-04-14T17:33:09.771Z,46.53
2018-04-14T17:35:10.799Z,47.00
2018-04-14T17:37:11.946Z,47.67
2018-04-14T17:39:13.968Z,45.30
2018-04-14T17:41:15.079Z,44.20
2018-04-14T17:43:16.203Z,47.73
2018-04-14T17:45:17.248Z,47.70
2018-04-14T17:47:18.277Z,45.87
2018-04-14T17:49:19.252Z,45.70
2018-04-14T17:51:21.011Z,45.97
2018-04-14T17:53:22.029Z,46.77
2018-04-14T17:55:23.033Z,43.80
2018-04-14T17:57:24.144Z,45.00
2018-04-14T17:59:25.978Z,42.40
2018-04-14T18:01:27.001Z,46.03
2018-04-14T18:03:28.010Z,44.37
2018-04-14T18:05:29.078Z,43.07
2018-04-14T18:07:30.132Z,43.50
2018-04-14T18:09:31.185Z,41.63
2018-04-14T18:11:32.293Z,41.37
2018-04-14T18:13:33.417Z,42.60
2018-04-14T18:15:34.522Z,45.90
2018-04-14T18:17:37.764Z,45.03
2018-04-14T18:19:39.692Z,42.80
2018-04-14T18:21:40.762Z,42.97
2018-04-14T18:23:41.802Z,43.50
2018-04-14T18:25:42.814Z,40.97
2018-04-14T18:27:43.839Z,41.10
2018-04-14T18:29:44.875Z,42.57
2018-04-14T18:31:45.894Z,41.70
2018-04-14T18:33:46.861Z,43.70
2018-04-14T18:35:48.334Z,41.23
2018-04-14T18:37:49.371Z,41.93
2018-04-14T18:39:50.612Z,42.57
2018-04-14T18:41:51.786Z,43.07
2018-04-14T18:43:53.111Z,41.40
2018-04-14T18:45:54.169Z,38.03
2018-04-14T18:47:55.246Z,40.60
2018-04-14T18:49:58.538Z,41.27
2018-04-14T18:52:00.976Z,40.00
2018-04-14T18:54:02.918Z,40.93
2018-04-14T18:56:04.493Z,39.80
2018-04-14T18:58:05.651Z,41.53
2018-04-14T19:00:06.711Z,41.70
2018-04-14T19:02:07.729Z,43.43
2018-04-14T19:04:08.860Z,32.70
2018-04-14T19:06:09.853Z,33.67
2018-04-14T19:08:10.904Z,32.20
2018-04-14T19:10:12.007Z,39.03
2018-04-14T19:12:13.022Z,36.87
2018-04-14T19:14:14.125Z,37.60
2018-04-14T19:16:15.280Z,36.17
2018-04-14T19:18:17.426Z,40.17
2018-04-14T19:20:18.446Z,37.47
2018-04-14T19:22:19.472Z,38.23
2018-04-14T19:24:20.602Z,38.60
2018-04-14T19:26:21.640Z,40.10
2018-04-14T19:28:24.403Z,31.90
2018-04-14T19:30:25.714Z,24.33
2018-04-14T19:32:28.899Z,28.10
2018-04-14T19:34:30.599Z,34.90
2018-04-14T19:36:32.821Z,40.37
2018-04-14T19:38:36.298Z,40.30
2018-04-14T19:40:38.066Z,38.80
2018-04-14T19:42:39.684Z,38.33
2018-04-14T19:44:40.671Z,37.30
2018-04-14T19:46:41.690Z,35.93
2018-04-14T19:48:42.797Z,35.43
2018-04-14T19:50:44.947Z,36.97
2018-04-14T19:52:46.039Z,36.87
2018-04-14T19:54:49.485Z,39.63
2018-04-14T19:56:51.123Z,39.37
2018-04-14T19:58:53.456Z,39.40
2018-04-14T20:00:54.493Z,40.93
2018-04-14T20:02:59.195Z,40.57
2018-04-14T20:05:01.927Z,41.53
2018-04-14T20:07:03.110Z,39.10
2018-04-14T20:09:05.073Z,41.80
2018-04-14T20:11:06.195Z,42.07
2018-04-14T20:13:08.564Z,38.47
2018-04-14T20:15:10.388Z,34.40
2018-04-14T20:17:14.170Z,36.87
2018-04-14T20:19:16.231Z,39.80
2018-04-14T20:21:17.705Z,36.07
2018-04-14T20:23:18.739Z,39.07
2018-04-14T20:25:19.824Z,40.37
2018-04-14T20:27:21.175Z,38.97
2018-04-14T20:29:22.374Z,39.70
2018-04-14T20:31:23.520Z,41.93
2018-04-14T20:33:25.745Z,41.63
2018-04-14T20:35:27.091Z,43.37
2018-04-14T20:37:28.136Z,39.33
2018-04-14T20:39:29.569Z,28.80
2018-04-14T20:41:30.623Z,32.07
2018-04-14T20:43:35.050Z,29.10
2018-04-14T20:45:36.788Z,30.43
2018-04-14T20:47:38.196Z,34.23
2018-04-14T20:49:41.090Z,33.70
2018-04-14T20:51:42.998Z,37.30
2018-04-14T20:53:49.420Z,37.80
2018-04-14T20:55:51.297Z,41.03
2018-04-14T20:57:52.460Z,34.40
2018-04-14T20:59:53.904Z,35.37
2018-04-14T21:01:56.870Z,41.23
2018-04-14T21:03:58.037Z,41.30
2018-04-14T21:06:33.097Z,36.40
2018-04-14T21:08:34.229Z,35.90
2018-04-14T21:10:35.498Z,32.93
2018-04-14T21:12:37.910Z,37.67
2018-04-14T21:14:38.983Z,45.17
2018-04-14T21:16:42.479Z,44.60
2018-04-14T21:18:44.167Z,43.97
2018-04-14T21:20:47.150Z,44.67
2018-04-14T21:22:48.211Z,46.57
2018-04-14T21:24:49.785Z,41.07
2018-04-14T21:26:53.350Z,39.07
2018-04-14T21:29:00.528Z,33.63
2018-04-14T21:31:01.781Z,42.40
2018-04-14T21:33:02.801Z,49.33
2018-04-14T21:35:07.127Z,49.83
2018-04-14T21:37:08.257Z,45.93
2018-04-14T21:39:09.299Z,46.47
2018-04-14T21:41:11.870Z,46.50
2018-04-14T21:43:13.131Z,47.00
2018-04-14T21:45:14.144Z,41.90
2018-04-14T21:47:16.436Z,37.40
2018-04-14T21:49:17.490Z,40.83
2018-04-14T21:51:18.574Z,37.70
2018-04-14T21:53:19.568Z,38.17
2018-04-14T21:55:21.655Z,40.93
2018-04-14T21:57:23.062Z,40.90
2018-04-14T21:59:29.647Z,38.43
2018-04-14T22:01:30.716Z,38.50
2018-04-14T22:03:32.191Z,38.83
2018-04-14T22:05:34.339Z,42.70
2018-04-14T22:07:35.876Z,44.17
2018-04-14T22:09:38.135Z,35.60
2018-04-14T22:11:41.714Z,40.10
2018-04-14T22:15:55.865Z,40.47
2018-04-14T22:17:56.881Z,41.43
2018-04-14T22:20:05.089Z,40.30
2018-04-14T22:24:44.087Z,29.80
2018-04-14T22:26:45.107Z,33.03
2018-04-14T22:28:48.734Z,31.37
2018-04-14T22:30:49.883Z,36.20
2018-04-14T22:32:52.258Z,38.33
2018-04-14T22:34:53.315Z,35.83
2018-04-14T22:36:54.332Z,40.77
2018-04-14T22:38:55.314Z,43.13
2018-04-14T22:41:09.940Z,30.23
2018-04-14T22:43:10.932Z,37.23
2018-04-14T22:45:12.918Z,37.93
2018-04-14T22:47:13.972Z,38.47
2018-04-14T22:49:21.663Z,28.70
2018-04-14T22:51:22.775Z,28.97
2018-04-14T22:53:24.759Z,32.83
2018-04-14T22:55:26.072Z,33.50
2018-04-14T22:57:30.488Z,35.17
2018-04-14T22:59:31.984Z,39.00
2018-04-14T23:01:33.683Z,43.10
2018-04-14T23:03:35.138Z,42.30
2018-04-14T23:05:36.707Z,44.93
2018-04-14T23:07:37.871Z,44.00
2018-04-14T23:09:39.377Z,46.80
2018-04-14T23:11:40.459Z,47.27
2018-04-14T23:13:41.559Z,47.80
2018-04-14T23:15:42.508Z,48.73
2018-04-14T23:17:43.759Z,46.57
2018-04-14T23:19:48.932Z,48.90
2018-04-14T23:21:50.060Z,48.10
2018-04-14T23:23:51.199Z,47.13
2018-04-14T23:25:52.304Z,46.13
2018-04-14T23:27:53.311Z,48.60
2018-04-14T23:29:54.396Z,36.60
2018-04-14T23:31:55.605Z,38.67
2018-04-14T23:33:56.606Z,47.13
2018-04-14T23:35:57.670Z,41.60
2018-04-14T23:38:00.254Z,42.27
2018-04-14T23:40:02.483Z,46.53
2018-04-14T23:42:03.723Z,50.77
2018-04-14T23:44:05.051Z,50.10
2018-04-14T23:46:06.142Z,49.40
2018-04-14T23:48:11.335Z,50.30
2018-04-14T23:50:14.372Z,53.23
2018-04-14T23:52:15.456Z,51.90
2018-04-14T23:56:52.142Z,47.53
2018-04-14T23:58:53.361Z,51.17
